sensor_id;sensor_type;location;lat;lon;timestamp;P1;durP1;ratioP1;P2;durP2;ratioP2
15841;SDS011;8021;48.022;11.812;2023-09-18T00:01:34;0.20;;;0.20;;
15841;SDS011;8021;48.022;11.812;2023-09-18T00:04:02;0.20;;;0.20;;
15841;SDS011;8021;48.022;11.812;2023-09-18T00:06:30;0.20;;;0.20;;
15841;SDS011;8021;48.022;11.812;2023-09-18T00:08:57;0.30;;;0.30;;
15841;SDS011;8021;48.022;11.812;2023-09-18T00:11:25;0.20;;;0.20;;
15841;SDS011;8021;48.022;11.812;2023-09-18T00:13:57;0.20;;;0.20;;
15841;SDS011;8021;48.022;11.812;2023-09-18T00:16:26;0.30;;;0.30;;
15841;SDS011;8021;48.022;11.812;2023-09-18T00:18:54;0.20;;;0.20;;
15841;SDS011;8021;48.022;11.812;2023-09-18T00:21:22;0.30;;;0.30;;
15841;SDS011;8021;48.022;11.812;2023-09-18T00:23:51;0.20;;;0.20;;
15841;SDS011;8021;48.022;11.812;2023-09-18T00:26:19;0.20;;;0.20;;
15841;SDS011;8021;48.022;11.812;2023-09-18T00:28:50;0.20;;;0.20;;
15841;SDS011;8021;48.022;11.812;2023-09-18T00:31:18;0.20;;;0.20;;
15841;SDS011;8021;48.022;11.812;2023-09-18T00:33:47;0.20;;;0.20;;
15841;SDS011;8021;48.022;11.812;2023-09-18T00:36:15;0.20;;;0.20;;
15841;SDS011;8021;48.022;11.812;2023-09-18T00:38:43;0.20;;;0.20;;
15841;SDS011;8021;48.022;11.812;2023-09-18T00:41:11;0.20;;;0.20;;
15841;SDS011;8021;48.022;11.812;2023-09-18T00:43:39;0.20;;;0.20;;
15841;SDS011;8021;48.022;11.812;2023-09-18T00:46:07;0.20;;;0.20;;
15841;SDS011;8021;48.022;11.812;2023-09-18T00:48:34;0.20;;;0.20;;
15841;SDS011;8021;48.022;11.812;2023-09-18T00:51:03;0.20;;;0.20;;
15841;SDS011;8021;48.022;11.812;2023-09-18T00:53:31;0.20;;;0.20;;
15841;SDS011;8021;48.022;11.812;2023-09-18T00:55:58;0.20;;;0.20;;
15841;SDS011;8021;48.022;11.812;2023-09-18T00:58:27;0.30;;;0.30;;
15841;SDS011;8021;48.022;11.812;2023-09-18T01:00:55;0.30;;;0.30;;
15841;SDS011;8021;48.022;11.812;2023-09-18T01:03:22;0.20;;;0.20;;
15841;SDS011;8021;48.022;11.812;2023-09-18T01:05:53;0.30;;;0.30;;
15841;SDS011;8021;48.022;11.812;2023-09-18T01:08:22;0.20;;;0.20;;
15841;SDS011;8021;48.022;11.812;2023-09-18T01:10:53;0.20;;;0.20;;
15841;SDS011;8021;48.022;11.812;2023-09-18T01:13:27;0.20;;;0.20;;
15841;SDS011;8021;48.022;11.812;2023-09-18T01:15:56;0.20;;;0.20;;
15841;SDS011;8021;48.022;11.812;2023-09-18T01:18:25;0.20;;;0.20;;
15841;SDS011;8021;48.022;11.812;2023-09-18T01:20:52;0.20;;;0.20;;
15841;SDS011;8021;48.022;11.812;2023-09-18T01:23:22;0.20;;;0.20;;
15841;SDS011;8021;48.022;11.812;2023-09-18T01:25:50;0.20;;;0.20;;
15841;SDS011;8021;48.022;11.812;2023-09-18T01:28:17;0.15;;;0.10;;
15841;SDS011;8021;48.022;11.812;2023-09-18T01:30:45;0.20;;;0.20;;
15841;SDS011;8021;48.022;11.812;2023-09-18T01:33:13;0.20;;;0.20;;
15841;SDS011;8021;48.022;11.812;2023-09-18T01:35:41;0.30;;;0.20;;
15841;SDS011;8021;48.022;11.812;2023-09-18T01:38:09;0.28;;;0.20;;
15841;SDS011;8021;48.022;11.812;2023-09-18T01:40:38;0.28;;;0.20;;
15841;SDS011;8021;48.022;11.812;2023-09-18T01:43:06;0.30;;;0.30;;
15841;SDS011;8021;48.022;11.812;2023-09-18T01:45:33;0.30;;;0.25;;
15841;SDS011;8021;48.022;11.812;2023-09-18T01:48:03;0.20;;;0.20;;
15841;SDS011;8021;48.022;11.812;2023-09-18T01:50:32;0.20;;;0.20;;
15841;SDS011;8021;48.022;11.812;2023-09-18T01:52:59;0.20;;;0.20;;
15841;SDS011;8021;48.022;11.812;2023-09-18T01:55:27;0.20;;;0.20;;
15841;SDS011;8021;48.022;11.812;2023-09-18T01:57:57;0.28;;;0.20;;
15841;SDS011;8021;48.022;11.812;2023-09-18T02:00:25;0.20;;;0.20;;
15841;SDS011;8021;48.022;11.812;2023-09-18T02:02:53;0.20;;;0.20;;
15841;SDS011;8021;48.022;11.812;2023-09-18T02:05:39;0.20;;;0.20;;
15841;SDS011;8021;48.022;11.812;2023-09-18T02:08:08;0.20;;;0.20;;
15841;SDS011;8021;48.022;11.812;2023-09-18T02:10:35;0.30;;;0.28;;
15841;SDS011;8021;48.022;11.812;2023-09-18T02:13:04;0.20;;;0.20;;
15841;SDS011;8021;48.022;11.812;2023-09-18T02:15:31;0.20;;;0.20;;
15841;SDS011;8021;48.022;11.812;2023-09-18T02:18:01;0.30;;;0.30;;
15841;SDS011;8021;48.022;11.812;2023-09-18T02:20:29;0.30;;;0.30;;
15841;SDS011;8021;48.022;11.812;2023-09-18T02:22:57;0.20;;;0.20;;
15841;SDS011;8021;48.022;11.812;2023-09-18T02:25:24;0.20;;;0.20;;
15841;SDS011;8021;48.022;11.812;2023-09-18T02:27:52;0.20;;;0.20;;
15841;SDS011;8021;48.022;11.812;2023-09-18T02:30:22;0.30;;;0.20;;
15841;SDS011;8021;48.022;11.812;2023-09-18T02:32:52;0.30;;;0.30;;
15841;SDS011;8021;48.022;11.812;2023-09-18T02:35:20;0.30;;;0.30;;
15841;SDS011;8021;48.022;11.812;2023-09-18T02:37:47;0.20;;;0.20;;
15841;SDS011;8021;48.022;11.812;2023-09-18T02:40:15;0.30;;;0.20;;
15841;SDS011;8021;48.022;11.812;2023-09-18T02:42:42;0.20;;;0.20;;
15841;SDS011;8021;48.022;11.812;2023-09-18T02:45:11;0.30;;;0.30;;
15841;SDS011;8021;48.022;11.812;2023-09-18T02:47:40;0.30;;;0.30;;
15841;SDS011;8021;48.022;11.812;2023-09-18T02:50:08;0.20;;;0.20;;
15841;SDS011;8021;48.022;11.812;2023-09-18T02:52:38;0.30;;;0.30;;
15841;SDS011;8021;48.022;11.812;2023-09-18T02:55:05;0.22;;;0.20;;
15841;SDS011;8021;48.022;11.812;2023-09-18T02:57:34;0.20;;;0.20;;
15841;SDS011;8021;48.022;11.812;2023-09-18T03:00:02;0.20;;;0.20;;
15841;SDS011;8021;48.022;11.812;2023-09-18T03:02:30;0.20;;;0.20;;
15841;SDS011;8021;48.022;11.812;2023-09-18T03:04:59;0.25;;;0.25;;
15841;SDS011;8021;48.022;11.812;2023-09-18T03:07:30;0.20;;;0.20;;
15841;SDS011;8021;48.022;11.812;2023-09-18T03:09:57;0.20;;;0.20;;
15841;SDS011;8021;48.022;11.812;2023-09-18T03:12:25;0.30;;;0.20;;
15841;SDS011;8021;48.022;11.812;2023-09-18T03:14:52;0.30;;;0.20;;
15841;SDS011;8021;48.022;11.812;2023-09-18T03:17:20;0.20;;;0.13;;
15841;SDS011;8021;48.022;11.812;2023-09-18T03:19:47;0.30;;;0.20;;
15841;SDS011;8021;48.022;11.812;2023-09-18T03:22:17;0.30;;;0.30;;
15841;SDS011;8021;48.022;11.812;2023-09-18T03:24:44;0.20;;;0.20;;
15841;SDS011;8021;48.022;11.812;2023-09-18T03:27:12;0.20;;;0.20;;
15841;SDS011;8021;48.022;11.812;2023-09-18T03:29:40;0.20;;;0.20;;
15841;SDS011;8021;48.022;11.812;2023-09-18T03:32:07;0.22;;;0.22;;
15841;SDS011;8021;48.022;11.812;2023-09-18T03:34:38;0.30;;;0.22;;
15841;SDS011;8021;48.022;11.812;2023-09-18T03:37:08;0.20;;;0.17;;
15841;SDS011;8021;48.022;11.812;2023-09-18T03:39:37;0.22;;;0.22;;
15841;SDS011;8021;48.022;11.812;2023-09-18T03:42:05;0.30;;;0.30;;
15841;SDS011;8021;48.022;11.812;2023-09-18T03:44:32;0.30;;;0.30;;
15841;SDS011;8021;48.022;11.812;2023-09-18T03:47:00;0.30;;;0.30;;
15841;SDS011;8021;48.022;11.812;2023-09-18T03:49:28;0.20;;;0.20;;
15841;SDS011;8021;48.022;11.812;2023-09-18T03:51:55;0.30;;;0.20;;
15841;SDS011;8021;48.022;11.812;2023-09-18T03:54:23;0.30;;;0.20;;
15841;SDS011;8021;48.022;11.812;2023-09-18T03:56:52;0.30;;;0.20;;
15841;SDS011;8021;48.022;11.812;2023-09-18T03:59:20;0.30;;;0.20;;
15841;SDS011;8021;48.022;11.812;2023-09-18T04:01:47;0.30;;;0.30;;
15841;SDS011;8021;48.022;11.812;2023-09-18T04:04:16;0.30;;;0.20;;
15841;SDS011;8021;48.022;11.812;2023-09-18T04:06:43;0.20;;;0.20;;
15841;SDS011;8021;48.022;11.812;2023-09-18T04:09:12;0.30;;;0.20;;
15841;SDS011;8021;48.022;11.812;2023-09-18T04:11:41;0.20;;;0.20;;
15841;SDS011;8021;48.022;11.812;2023-09-18T04:14:10;0.20;;;0.20;;
15841;SDS011;8021;48.022;11.812;2023-09-18T04:16:38;0.20;;;0.20;;
15841;SDS011;8021;48.022;11.812;2023-09-18T04:19:08;0.30;;;0.20;;
15841;SDS011;8021;48.022;11.812;2023-09-18T04:21:38;0.20;;;0.20;;
15841;SDS011;8021;48.022;11.812;2023-09-18T04:24:06;0.30;;;0.20;;
15841;SDS011;8021;48.022;11.812;2023-09-18T04:26:34;0.20;;;0.20;;
15841;SDS011;8021;48.022;11.812;2023-09-18T04:29:01;0.30;;;0.20;;
15841;SDS011;8021;48.022;11.812;2023-09-18T04:31:31;0.20;;;0.20;;
15841;SDS011;8021;48.022;11.812;2023-09-18T04:33:59;0.30;;;0.20;;
15841;SDS011;8021;48.022;11.812;2023-09-18T04:36:27;0.30;;;0.30;;
15841;SDS011;8021;48.022;11.812;2023-09-18T04:38:54;0.28;;;0.28;;
15841;SDS011;8021;48.022;11.812;2023-09-18T04:41:22;0.20;;;0.20;;
15841;SDS011;8021;48.022;11.812;2023-09-18T04:43:52;0.20;;;0.20;;
15841;SDS011;8021;48.022;11.812;2023-09-18T04:46:19;0.28;;;0.28;;
15841;SDS011;8021;48.022;11.812;2023-09-18T04:48:48;0.20;;;0.20;;
15841;SDS011;8021;48.022;11.812;2023-09-18T04:51:16;0.30;;;0.20;;
15841;SDS011;8021;48.022;11.812;2023-09-18T04:53:44;0.20;;;0.20;;
15841;SDS011;8021;48.022;11.812;2023-09-18T04:56:11;0.28;;;0.25;;
15841;SDS011;8021;48.022;11.812;2023-09-18T04:58:39;0.20;;;0.20;;
15841;SDS011;8021;48.022;11.812;2023-09-18T05:01:07;0.20;;;0.20;;
15841;SDS011;8021;48.022;11.812;2023-09-18T05:03:37;0.30;;;0.30;;
15841;SDS011;8021;48.022;11.812;2023-09-18T05:06:10;0.30;;;0.30;;
15841;SDS011;8021;48.022;11.812;2023-09-18T05:08:37;0.20;;;0.20;;
15841;SDS011;8021;48.022;11.812;2023-09-18T05:11:05;0.20;;;0.10;;
15841;SDS011;8021;48.022;11.812;2023-09-18T05:13:33;0.30;;;0.30;;
15841;SDS011;8021;48.022;11.812;2023-09-18T05:16:01;0.30;;;0.30;;
15841;SDS011;8021;48.022;11.812;2023-09-18T05:18:29;0.30;;;0.20;;
15841;SDS011;8021;48.022;11.812;2023-09-18T05:20:57;0.20;;;0.20;;
15841;SDS011;8021;48.022;11.812;2023-09-18T05:23:26;0.30;;;0.20;;
15841;SDS011;8021;48.022;11.812;2023-09-18T05:25:54;0.20;;;0.20;;
15841;SDS011;8021;48.022;11.812;2023-09-18T05:28:21;0.20;;;0.20;;
15841;SDS011;8021;48.022;11.812;2023-09-18T05:30:49;0.20;;;0.20;;
15841;SDS011;8021;48.022;11.812;2023-09-18T05:33:16;0.20;;;0.20;;
15841;SDS011;8021;48.022;11.812;2023-09-18T05:35:44;0.25;;;0.25;;
15841;SDS011;8021;48.022;11.812;2023-09-18T05:38:12;0.20;;;0.20;;
15841;SDS011;8021;48.022;11.812;2023-09-18T05:40:42;0.20;;;0.20;;
15841;SDS011;8021;48.022;11.812;2023-09-18T05:43:10;0.20;;;0.20;;
15841;SDS011;8021;48.022;11.812;2023-09-18T05:45:38;0.20;;;0.20;;
15841;SDS011;8021;48.022;11.812;2023-09-18T05:48:06;0.20;;;0.20;;
15841;SDS011;8021;48.022;11.812;2023-09-18T05:50:35;0.10;;;0.10;;
15841;SDS011;8021;48.022;11.812;2023-09-18T05:53:03;0.10;;;0.10;;
15841;SDS011;8021;48.022;11.812;2023-09-18T05:55:31;0.10;;;0.10;;
15841;SDS011;8021;48.022;11.812;2023-09-18T05:58:00;0.10;;;0.10;;
15841;SDS011;8021;48.022;11.812;2023-09-18T06:00:30;0.10;;;0.10;;
15841;SDS011;8021;48.022;11.812;2023-09-18T06:02:58;0.00;;;0.00;;
15841;SDS011;8021;48.022;11.812;2023-09-18T06:05:26;0.10;;;0.03;;
15841;SDS011;8021;48.022;11.812;2023-09-18T06:07:53;0.00;;;0.00;;
15841;SDS011;8021;48.022;11.812;2023-09-18T06:10:21;0.00;;;0.00;;
15841;SDS011;8021;48.022;11.812;2023-09-18T06:12:48;0.00;;;0.00;;
15841;SDS011;8021;48.022;11.812;2023-09-18T06:15:17;0.00;;;0.00;;
15841;SDS011;8021;48.022;11.812;2023-09-18T06:17:45;0.00;;;0.00;;
15841;SDS011;8021;48.022;11.812;2023-09-18T06:20:13;0.00;;;0.00;;
15841;SDS011;8021;48.022;11.812;2023-09-18T06:22:42;0.00;;;0.00;;
15841;SDS011;8021;48.022;11.812;2023-09-18T06:25:10;0.00;;;0.00;;
15841;SDS011;8021;48.022;11.812;2023-09-18T06:27:37;0.00;;;0.00;;
15841;SDS011;8021;48.022;11.812;2023-09-18T06:30:05;0.00;;;0.00;;
15841;SDS011;8021;48.022;11.812;2023-09-18T06:32:34;0.00;;;0.00;;
15841;SDS011;8021;48.022;11.812;2023-09-18T06:35:03;0.00;;;0.00;;
15841;SDS011;8021;48.022;11.812;2023-09-18T06:37:31;0.00;;;0.00;;
15841;SDS011;8021;48.022;11.812;2023-09-18T06:39:59;0.00;;;0.00;;
15841;SDS011;8021;48.022;11.812;2023-09-18T06:42:30;0.00;;;0.00;;
15841;SDS011;8021;48.022;11.812;2023-09-18T06:44:57;0.00;;;0.00;;
15841;SDS011;8021;48.022;11.812;2023-09-18T06:47:25;0.00;;;0.00;;
15841;SDS011;8021;48.022;11.812;2023-09-18T06:49:54;0.00;;;0.00;;
15841;SDS011;8021;48.022;11.812;2023-09-18T06:52:21;0.00;;;0.00;;
15841;SDS011;8021;48.022;11.812;2023-09-18T06:54:49;0.00;;;0.00;;
15841;SDS011;8021;48.022;11.812;2023-09-18T06:57:16;0.00;;;0.00;;
15841;SDS011;8021;48.022;11.812;2023-09-18T06:59:44;0.00;;;0.00;;
15841;SDS011;8021;48.022;11.812;2023-09-18T07:02:12;0.00;;;0.00;;
15841;SDS011;8021;48.022;11.812;2023-09-18T07:04:41;0.00;;;0.00;;
15841;SDS011;8021;48.022;11.812;2023-09-18T07:07:14;0.00;;;0.00;;
15841;SDS011;8021;48.022;11.812;2023-09-18T07:09:42;0.00;;;0.00;;
15841;SDS011;8021;48.022;11.812;2023-09-18T07:12:29;0.00;;;0.00;;
15841;SDS011;8021;48.022;11.812;2023-09-18T07:14:58;0.00;;;0.00;;
15841;SDS011;8021;48.022;11.812;2023-09-18T07:17:25;0.00;;;0.00;;
15841;SDS011;8021;48.022;11.812;2023-09-18T07:19:53;0.00;;;0.00;;
15841;SDS011;8021;48.022;11.812;2023-09-18T07:22:22;0.00;;;0.00;;
15841;SDS011;8021;48.022;11.812;2023-09-18T07:24:50;0.00;;;0.00;;
15841;SDS011;8021;48.022;11.812;2023-09-18T07:27:17;0.00;;;0.00;;
15841;SDS011;8021;48.022;11.812;2023-09-18T07:29:45;0.00;;;0.00;;
15841;SDS011;8021;48.022;11.812;2023-09-18T07:32:12;0.00;;;0.00;;
15841;SDS011;8021;48.022;11.812;2023-09-18T07:34:55;0.00;;;0.00;;
15841;SDS011;8021;48.022;11.812;2023-09-18T07:37:24;0.00;;;0.00;;
15841;SDS011;8021;48.022;11.812;2023-09-18T07:39:51;0.00;;;0.00;;
15841;SDS011;8021;48.022;11.812;2023-09-18T07:42:19;0.00;;;0.00;;
15841;SDS011;8021;48.022;11.812;2023-09-18T07:44:46;0.00;;;0.00;;
15841;SDS011;8021;48.022;11.812;2023-09-18T07:47:14;0.00;;;0.00;;
15841;SDS011;8021;48.022;11.812;2023-09-18T07:49:41;0.00;;;0.00;;
15841;SDS011;8021;48.022;11.812;2023-09-18T07:52:09;0.00;;;0.00;;
15841;SDS011;8021;48.022;11.812;2023-09-18T07:54:38;0.00;;;0.00;;
15841;SDS011;8021;48.022;11.812;2023-09-18T07:57:05;0.00;;;0.00;;
15841;SDS011;8021;48.022;11.812;2023-09-18T07:59:35;0.00;;;0.00;;
15841;SDS011;8021;48.022;11.812;2023-09-18T08:02:03;0.00;;;0.00;;
15841;SDS011;8021;48.022;11.812;2023-09-18T08:04:31;0.00;;;0.00;;
15841;SDS011;8021;48.022;11.812;2023-09-18T08:06:59;0.00;;;0.00;;
15841;SDS011;8021;48.022;11.812;2023-09-18T08:09:27;0.00;;;0.00;;
15841;SDS011;8021;48.022;11.812;2023-09-18T08:11:56;0.00;;;0.00;;
15841;SDS011;8021;48.022;11.812;2023-09-18T08:14:24;0.00;;;0.00;;
15841;SDS011;8021;48.022;11.812;2023-09-18T08:16:55;0.00;;;0.00;;
15841;SDS011;8021;48.022;11.812;2023-09-18T08:19:23;0.00;;;0.00;;
15841;SDS011;8021;48.022;11.812;2023-09-18T08:21:53;0.00;;;0.00;;
15841;SDS011;8021;48.022;11.812;2023-09-18T08:24:20;0.00;;;0.00;;
15841;SDS011;8021;48.022;11.812;2023-09-18T08:26:48;0.00;;;0.00;;
15841;SDS011;8021;48.022;11.812;2023-09-18T08:29:17;0.00;;;0.00;;
15841;SDS011;8021;48.022;11.812;2023-09-18T08:31:44;0.00;;;0.00;;
15841;SDS011;8021;48.022;11.812;2023-09-18T08:34:12;0.00;;;0.00;;
15841;SDS011;8021;48.022;11.812;2023-09-18T08:36:39;0.00;;;0.00;;
15841;SDS011;8021;48.022;11.812;2023-09-18T08:39:07;0.00;;;0.00;;
15841;SDS011;8021;48.022;11.812;2023-09-18T08:41:36;0.00;;;0.00;;
15841;SDS011;8021;48.022;11.812;2023-09-18T08:44:05;0.00;;;0.00;;
15841;SDS011;8021;48.022;11.812;2023-09-18T08:46:37;0.00;;;0.00;;
15841;SDS011;8021;48.022;11.812;2023-09-18T08:49:04;0.00;;;0.00;;
15841;SDS011;8021;48.022;11.812;2023-09-18T08:51:32;0.00;;;0.00;;
15841;SDS011;8021;48.022;11.812;2023-09-18T08:54:00;0.00;;;0.00;;
15841;SDS011;8021;48.022;11.812;2023-09-18T08:56:29;0.00;;;0.00;;
15841;SDS011;8021;48.022;11.812;2023-09-18T08:58:57;0.00;;;0.00;;
15841;SDS011;8021;48.022;11.812;2023-09-18T09:01:26;0.00;;;0.00;;
15841;SDS011;8021;48.022;11.812;2023-09-18T09:03:55;0.00;;;0.00;;
15841;SDS011;8021;48.022;11.812;2023-09-18T09:06:22;0.00;;;0.00;;
15841;SDS011;8021;48.022;11.812;2023-09-18T09:08:50;0.00;;;0.00;;
15841;SDS011;8021;48.022;11.812;2023-09-18T09:11:18;0.00;;;0.00;;
15841;SDS011;8021;48.022;11.812;2023-09-18T09:13:46;0.00;;;0.00;;
15841;SDS011;8021;48.022;11.812;2023-09-18T09:16:14;0.00;;;0.00;;
15841;SDS011;8021;48.022;11.812;2023-09-18T09:18:48;0.00;;;0.00;;
15841;SDS011;8021;48.022;11.812;2023-09-18T09:21:18;0.00;;;0.00;;
15841;SDS011;8021;48.022;11.812;2023-09-18T09:23:46;0.00;;;0.00;;
15841;SDS011;8021;48.022;11.812;2023-09-18T09:26:16;0.03;;;0.00;;
15841;SDS011;8021;48.022;11.812;2023-09-18T09:28:45;0.00;;;0.00;;
15841;SDS011;8021;48.022;11.812;2023-09-18T09:31:15;0.03;;;0.00;;
15841;SDS011;8021;48.022;11.812;2023-09-18T09:33:51;0.03;;;0.00;;
15841;SDS011;8021;48.022;11.812;2023-09-18T09:36:21;0.10;;;0.10;;
15841;SDS011;8021;48.022;11.812;2023-09-18T09:38:49;0.00;;;0.00;;
15841;SDS011;8021;48.022;11.812;2023-09-18T09:41:22;0.05;;;0.05;;
15841;SDS011;8021;48.022;11.812;2023-09-18T09:43:49;0.00;;;0.00;;
15841;SDS011;8021;48.022;11.812;2023-09-18T09:46:18;0.00;;;0.00;;
15841;SDS011;8021;48.022;11.812;2023-09-18T09:48:57;0.00;;;0.00;;
15841;SDS011;8021;48.022;11.812;2023-09-18T09:51:30;0.00;;;0.00;;
15841;SDS011;8021;48.022;11.812;2023-09-18T09:53:58;0.00;;;0.00;;
15841;SDS011;8021;48.022;11.812;2023-09-18T09:56:43;0.00;;;0.00;;
15841;SDS011;8021;48.022;11.812;2023-09-18T09:59:11;0.00;;;0.00;;
15841;SDS011;8021;48.022;11.812;2023-09-18T10:01:39;0.10;;;0.03;;
15841;SDS011;8021;48.022;11.812;2023-09-18T10:04:08;0.00;;;0.00;;
15841;SDS011;8021;48.022;11.812;2023-09-18T10:06:38;0.10;;;0.00;;
15841;SDS011;8021;48.022;11.812;2023-09-18T10:09:08;0.03;;;0.00;;
15841;SDS011;8021;48.022;11.812;2023-09-18T10:11:37;0.10;;;0.00;;
15841;SDS011;8021;48.022;11.812;2023-09-18T10:14:09;0.00;;;0.00;;
15841;SDS011;8021;48.022;11.812;2023-09-18T10:16:39;0.00;;;0.00;;
15841;SDS011;8021;48.022;11.812;2023-09-18T10:19:09;0.00;;;0.00;;
15841;SDS011;8021;48.022;11.812;2023-09-18T10:21:44;0.00;;;0.00;;
15841;SDS011;8021;48.022;11.812;2023-09-18T10:24:17;0.10;;;0.00;;
15841;SDS011;8021;48.022;11.812;2023-09-18T10:26:48;0.10;;;0.10;;
15841;SDS011;8021;48.022;11.812;2023-09-18T10:29:18;0.00;;;0.00;;
15841;SDS011;8021;48.022;11.812;2023-09-18T10:31:47;0.00;;;0.00;;
15841;SDS011;8021;48.022;11.812;2023-09-18T10:34:15;0.00;;;0.00;;
15841;SDS011;8021;48.022;11.812;2023-09-18T10:36:44;0.00;;;0.00;;
15841;SDS011;8021;48.022;11.812;2023-09-18T10:39:14;0.03;;;0.03;;
15841;SDS011;8021;48.022;11.812;2023-09-18T10:41:46;0.10;;;0.10;;
15841;SDS011;8021;48.022;11.812;2023-09-18T10:44:15;0.00;;;0.00;;
15841;SDS011;8021;48.022;11.812;2023-09-18T10:46:43;0.10;;;0.10;;
15841;SDS011;8021;48.022;11.812;2023-09-18T10:49:11;0.00;;;0.00;;
15841;SDS011;8021;48.022;11.812;2023-09-18T10:51:38;0.00;;;0.00;;
15841;SDS011;8021;48.022;11.812;2023-09-18T10:54:09;0.10;;;0.10;;
15841;SDS011;8021;48.022;11.812;2023-09-18T10:56:40;0.10;;;0.10;;
15841;SDS011;8021;48.022;11.812;2023-09-18T10:59:08;0.00;;;0.00;;
15841;SDS011;8021;48.022;11.812;2023-09-18T11:01:36;0.10;;;0.10;;
15841;SDS011;8021;48.022;11.812;2023-09-18T11:04:04;0.10;;;0.10;;
15841;SDS011;8021;48.022;11.812;2023-09-18T11:09:23;0.10;;;0.10;;
15841;SDS011;8021;48.022;11.812;2023-09-18T11:11:52;0.10;;;0.10;;
15841;SDS011;8021;48.022;11.812;2023-09-18T11:14:23;0.00;;;0.00;;
15841;SDS011;8021;48.022;11.812;2023-09-18T11:16:51;0.10;;;0.08;;
15841;SDS011;8021;48.022;11.812;2023-09-18T11:19:18;0.00;;;0.00;;
15841;SDS011;8021;48.022;11.812;2023-09-18T11:21:46;0.10;;;0.10;;
15841;SDS011;8021;48.022;11.812;2023-09-18T11:24:17;0.10;;;0.10;;
15841;SDS011;8021;48.022;11.812;2023-09-18T11:26:47;0.10;;;0.05;;
15841;SDS011;8021;48.022;11.812;2023-09-18T11:29:15;0.08;;;0.08;;
15841;SDS011;8021;48.022;11.812;2023-09-18T11:31:46;0.00;;;0.00;;
15841;SDS011;8021;48.022;11.812;2023-09-18T11:34:19;0.10;;;0.00;;
15841;SDS011;8021;48.022;11.812;2023-09-18T11:36:47;0.00;;;0.00;;
15841;SDS011;8021;48.022;11.812;2023-09-18T11:42:06;0.00;;;0.00;;
15841;SDS011;8021;48.022;11.812;2023-09-18T11:44:34;0.10;;;0.00;;
15841;SDS011;8021;48.022;11.812;2023-09-18T11:47:07;0.00;;;0.00;;
15841;SDS011;8021;48.022;11.812;2023-09-18T11:49:40;0.10;;;0.10;;
15841;SDS011;8021;48.022;11.812;2023-09-18T11:52:09;0.10;;;0.10;;
15841;SDS011;8021;48.022;11.812;2023-09-18T11:54:38;0.10;;;0.10;;
15841;SDS011;8021;48.022;11.812;2023-09-18T11:57:07;0.10;;;0.10;;
15841;SDS011;8021;48.022;11.812;2023-09-18T11:59:37;0.10;;;0.10;;
15841;SDS011;8021;48.022;11.812;2023-09-18T12:02:10;0.10;;;0.10;;
15841;SDS011;8021;48.022;11.812;2023-09-18T12:05:13;0.10;;;0.10;;
15841;SDS011;8021;48.022;11.812;2023-09-18T12:07:41;0.10;;;0.10;;
15841;SDS011;8021;48.022;11.812;2023-09-18T12:10:12;0.10;;;0.10;;
15841;SDS011;8021;48.022;11.812;2023-09-18T12:12:41;0.10;;;0.10;;
15841;SDS011;8021;48.022;11.812;2023-09-18T12:15:10;0.13;;;0.13;;
15841;SDS011;8021;48.022;11.812;2023-09-18T12:17:38;0.10;;;0.10;;
15841;SDS011;8021;48.022;11.812;2023-09-18T12:20:06;0.10;;;0.10;;
15841;SDS011;8021;48.022;11.812;2023-09-18T12:22:34;0.10;;;0.10;;
15841;SDS011;8021;48.022;11.812;2023-09-18T12:25:09;0.13;;;0.13;;
15841;SDS011;8021;48.022;11.812;2023-09-18T12:27:43;0.10;;;0.10;;
15841;SDS011;8021;48.022;11.812;2023-09-18T12:30:11;0.10;;;0.10;;
15841;SDS011;8021;48.022;11.812;2023-09-18T12:32:41;0.10;;;0.10;;
15841;SDS011;8021;48.022;11.812;2023-09-18T12:35:09;0.20;;;0.20;;
15841;SDS011;8021;48.022;11.812;2023-09-18T12:37:40;0.10;;;0.10;;
15841;SDS011;8021;48.022;11.812;2023-09-18T12:40:19;0.10;;;0.10;;
15841;SDS011;8021;48.022;11.812;2023-09-18T12:42:49;0.10;;;0.10;;
15841;SDS011;8021;48.022;11.812;2023-09-18T12:45:16;0.10;;;0.10;;
15841;SDS011;8021;48.022;11.812;2023-09-18T12:47:44;0.15;;;0.10;;
15841;SDS011;8021;48.022;11.812;2023-09-18T12:50:12;0.20;;;0.20;;
15841;SDS011;8021;48.022;11.812;2023-09-18T12:52:40;0.20;;;0.10;;
15841;SDS011;8021;48.022;11.812;2023-09-18T12:55:09;0.20;;;0.20;;
15841;SDS011;8021;48.022;11.812;2023-09-18T12:57:48;0.10;;;0.10;;
15841;SDS011;8021;48.022;11.812;2023-09-18T13:00:17;0.10;;;0.10;;
15841;SDS011;8021;48.022;11.812;2023-09-18T13:02:46;0.10;;;0.10;;
15841;SDS011;8021;48.022;11.812;2023-09-18T13:05:18;0.10;;;0.10;;
15841;SDS011;8021;48.022;11.812;2023-09-18T13:07:46;0.20;;;0.20;;
15841;SDS011;8021;48.022;11.812;2023-09-18T13:10:13;0.20;;;0.20;;
15841;SDS011;8021;48.022;11.812;2023-09-18T13:12:42;0.30;;;0.20;;
15841;SDS011;8021;48.022;11.812;2023-09-18T13:15:12;0.13;;;0.13;;
15841;SDS011;8021;48.022;11.812;2023-09-18T13:17:40;0.20;;;0.20;;
15841;SDS011;8021;48.022;11.812;2023-09-18T13:20:11;0.10;;;0.10;;
15841;SDS011;8021;48.022;11.812;2023-09-18T13:22:39;0.20;;;0.20;;
15841;SDS011;8021;48.022;11.812;2023-09-18T13:25:07;0.10;;;0.10;;
15841;SDS011;8021;48.022;11.812;2023-09-18T13:27:34;0.13;;;0.13;;
15841;SDS011;8021;48.022;11.812;2023-09-18T13:30:02;0.20;;;0.20;;
15841;SDS011;8021;48.022;11.812;2023-09-18T13:32:37;0.20;;;0.20;;
15841;SDS011;8021;48.022;11.812;2023-09-18T13:35:07;0.22;;;0.22;;
15841;SDS011;8021;48.022;11.812;2023-09-18T13:37:35;0.20;;;0.20;;
15841;SDS011;8021;48.022;11.812;2023-09-18T13:40:04;0.17;;;0.17;;
15841;SDS011;8021;48.022;11.812;2023-09-18T13:42:35;0.20;;;0.20;;
15841;SDS011;8021;48.022;11.812;2023-09-18T13:45:03;0.20;;;0.20;;
15841;SDS011;8021;48.022;11.812;2023-09-18T13:47:30;0.20;;;0.20;;
15841;SDS011;8021;48.022;11.812;2023-09-18T13:50:00;0.20;;;0.20;;
15841;SDS011;8021;48.022;11.812;2023-09-18T13:52:29;0.20;;;0.13;;
15841;SDS011;8021;48.022;11.812;2023-09-18T13:54:56;0.20;;;0.20;;
15841;SDS011;8021;48.022;11.812;2023-09-18T13:57:24;0.20;;;0.20;;
15841;SDS011;8021;48.022;11.812;2023-09-18T13:59:51;0.20;;;0.20;;
15841;SDS011;8021;48.022;11.812;2023-09-18T14:02:20;0.20;;;0.20;;
15841;SDS011;8021;48.022;11.812;2023-09-18T14:04:49;0.20;;;0.20;;
15841;SDS011;8021;48.022;11.812;2023-09-18T14:07:18;0.10;;;0.10;;
15841;SDS011;8021;48.022;11.812;2023-09-18T14:09:45;0.10;;;0.10;;
15841;SDS011;8021;48.022;11.812;2023-09-18T14:12:13;0.20;;;0.20;;
15841;SDS011;8021;48.022;11.812;2023-09-18T14:14:41;0.20;;;0.20;;
15841;SDS011;8021;48.022;11.812;2023-09-18T14:17:09;0.20;;;0.20;;
15841;SDS011;8021;48.022;11.812;2023-09-18T14:19:36;0.13;;;0.13;;
15841;SDS011;8021;48.022;11.812;2023-09-18T14:22:04;0.20;;;0.20;;
15841;SDS011;8021;48.022;11.812;2023-09-18T14:24:33;0.13;;;0.13;;
15841;SDS011;8021;48.022;11.812;2023-09-18T14:27:01;0.10;;;0.10;;
15841;SDS011;8021;48.022;11.812;2023-09-18T14:29:29;0.20;;;0.20;;
15841;SDS011;8021;48.022;11.812;2023-09-18T14:31:57;0.20;;;0.20;;
15841;SDS011;8021;48.022;11.812;2023-09-18T14:34:25;0.20;;;0.20;;
15841;SDS011;8021;48.022;11.812;2023-09-18T14:36:53;0.20;;;0.20;;
15841;SDS011;8021;48.022;11.812;2023-09-18T14:39:21;0.10;;;0.10;;
15841;SDS011;8021;48.022;11.812;2023-09-18T14:41:49;0.20;;;0.20;;
15841;SDS011;8021;48.022;11.812;2023-09-18T14:44:17;0.20;;;0.20;;
15841;SDS011;8021;48.022;11.812;2023-09-18T14:46:45;0.20;;;0.20;;
15841;SDS011;8021;48.022;11.812;2023-09-18T14:49:12;0.10;;;0.10;;
15841;SDS011;8021;48.022;11.812;2023-09-18T14:51:40;0.10;;;0.10;;
15841;SDS011;8021;48.022;11.812;2023-09-18T14:54:07;0.20;;;0.20;;
15841;SDS011;8021;48.022;11.812;2023-09-18T14:56:35;0.10;;;0.10;;
15841;SDS011;8021;48.022;11.812;2023-09-18T14:59:05;0.10;;;0.10;;
15841;SDS011;8021;48.022;11.812;2023-09-18T15:01:33;0.20;;;0.20;;
15841;SDS011;8021;48.022;11.812;2023-09-18T15:04:05;0.20;;;0.20;;